sensor_id;sensor_type;location;lat;lon;timestamp;pressure;altitude;pressure_sealevel;temperature;humidity
74649;BME280;63168;49.280;7.214;2022-09-12T00:00:07;98922.28;;;21.65;56.86
74649;BME280;63168;49.280;7.214;2022-09-12T00:02:33;98924.09;;;21.65;56.77
74649;BME280;63168;49.280;7.214;2022-09-12T00:04:58;98925.94;;;21.64;56.85
74649;BME280;63168;49.280;7.214;2022-09-12T00:07:25;98923.28;;;21.64;56.73
74649;BME280;63168;49.280;7.214;2022-09-12T00:09:51;98923.28;;;21.64;56.78
74649;BME280;63168;49.280;7.214;2022-09-12T00:12:16;98921.59;;;21.63;57.12
74649;BME280;63168;49.280;7.214;2022-09-12T00:14:42;98915.41;;;21.63;56.67
74649;BME280;63168;49.280;7.214;2022-09-12T00:17:07;98917.22;;;21.62;56.82
74649;BME280;63168;49.280;7.214;2022-09-12T00:19:32;98911.06;;;21.62;56.80
74649;BME280;63168;49.280;7.214;2022-09-12T00:21:58;98913.75;;;21.62;56.74
74649;BME280;63168;49.280;7.214;2022-09-12T00:24:25;98914.69;;;21.61;57.00
74649;BME280;63168;49.280;7.214;2022-09-12T00:26:50;98905.88;;;21.60;56.66
74649;BME280;63168;49.280;7.214;2022-09-12T00:29:17;98908.53;;;21.60;56.97
74649;BME280;63168;49.280;7.214;2022-09-12T00:31:43;98907.69;;;21.59;56.56
74649;BME280;63168;49.280;7.214;2022-09-12T00:34:08;98909.50;;;21.59;56.73
74649;BME280;63168;49.280;7.214;2022-09-12T00:36:34;98900.69;;;21.58;56.55
74649;BME280;63168;49.280;7.214;2022-09-12T00:38:59;98902.50;;;21.58;56.86
74649;BME280;63168;49.280;7.214;2022-09-12T00:41:29;98902.50;;;21.58;56.94
74649;BME280;63168;49.280;7.214;2022-09-12T00:43:56;98900.81;;;21.57;56.58
74649;BME280;63168;49.280;7.214;2022-09-12T00:46:28;98903.50;;;21.57;56.91
74649;BME280;63168;49.280;7.214;2022-09-12T00:48:57;98899.97;;;21.56;56.77
74649;BME280;63168;49.280;7.214;2022-09-12T00:51:24;98896.47;;;21.56;56.52
74649;BME280;63168;49.280;7.214;2022-09-12T00:53:52;98898.31;;;21.55;56.88
74649;BME280;63168;49.280;7.214;2022-09-12T00:56:20;98901.81;;;21.56;56.75
74649;BME280;63168;49.280;7.214;2022-09-12T00:58:51;98892.97;;;21.55;56.85
74649;BME280;63168;49.280;7.214;2022-09-12T01:01:19;98892.13;;;21.55;56.46
74649;BME280;63168;49.280;7.214;2022-09-12T01:03:45;98896.63;;;21.54;56.45
74649;BME280;63168;49.280;7.214;2022-09-12T01:06:14;98884.25;;;21.53;56.73
74649;BME280;63168;49.280;7.214;2022-09-12T01:08:42;98887.78;;;21.54;56.62
74649;BME280;63168;49.280;7.214;2022-09-12T01:11:09;98886.09;;;21.53;56.40
74649;BME280;63168;49.280;7.214;2022-09-12T01:13:36;98892.41;;;21.52;56.28
74649;BME280;63168;49.280;7.214;2022-09-12T01:16:04;98881.72;;;21.52;56.32
74649;BME280;63168;49.280;7.214;2022-09-12T01:18:40;98885.38;;;21.51;56.33
74649;BME280;63168;49.280;7.214;2022-09-12T01:21:14;98875.56;;;21.51;56.18
74649;BME280;63168;49.280;7.214;2022-09-12T01:24:10;98873.06;;;21.50;56.40
74649;BME280;63168;49.280;7.214;2022-09-12T01:26:51;98877.53;;;21.49;56.44
74649;BME280;63168;49.280;7.214;2022-09-12T01:29:34;98877.53;;;21.49;56.56
74649;BME280;63168;49.280;7.214;2022-09-12T01:32:08;98881.19;;;21.48;56.19
74649;BME280;63168;49.280;7.214;2022-09-12T01:34:41;98873.19;;;21.48;56.31
74649;BME280;63168;49.280;7.214;2022-09-12T01:37:14;98865.19;;;21.48;56.20
74649;BME280;63168;49.280;7.214;2022-09-12T01:39:50;98870.53;;;21.48;56.41
74649;BME280;63168;49.280;7.214;2022-09-12T01:42:22;98865.34;;;21.46;56.58
74649;BME280;63168;49.280;7.214;2022-09-12T01:44:54;98862.66;;;21.46;56.10
74649;BME280;63168;49.280;7.214;2022-09-12T01:47:28;98863.66;;;21.45;56.55
74649;BME280;63168;49.280;7.214;2022-09-12T01:49:59;98861.00;;;21.45;56.08
74649;BME280;63168;49.280;7.214;2022-09-12T01:52:28;98862.81;;;21.45;56.46
74649;BME280;63168;49.280;7.214;2022-09-12T01:55:01;98856.47;;;21.46;56.47
74649;BME280;63168;49.280;7.214;2022-09-12T01:57:33;98854.81;;;21.45;56.00
74649;BME280;63168;49.280;7.214;2022-09-12T02:00:05;98846.94;;;21.43;56.30
74649;BME280;63168;49.280;7.214;2022-09-12T02:02:35;98846.13;;;21.43;56.45
74649;BME280;63168;49.280;7.214;2022-09-12T02:05:05;98840.78;;;21.43;56.07
74649;BME280;63168;49.280;7.214;2022-09-12T02:07:36;98839.94;;;21.42;56.17
74649;BME280;63168;49.280;7.214;2022-09-12T02:10:06;98838.28;;;21.41;56.17
74649;BME280;63168;49.280;7.214;2022-09-12T02:12:38;98829.41;;;21.41;56.21
74649;BME280;63168;49.280;7.214;2022-09-12T02:15:07;98827.59;;;21.41;56.25
74649;BME280;63168;49.280;7.214;2022-09-12T02:17:37;98825.06;;;21.40;56.35
74649;BME280;63168;49.280;7.214;2022-09-12T02:20:08;98833.91;;;21.40;56.21
74649;BME280;63168;49.280;7.214;2022-09-12T02:22:36;98824.06;;;21.41;55.97
74649;BME280;63168;49.280;7.214;2022-09-12T02:25:03;98827.88;;;21.38;55.88
74649;BME280;63168;49.280;7.214;2022-09-12T02:27:33;98834.03;;;21.39;55.84
74649;BME280;63168;49.280;7.214;2022-09-12T02:30:02;98832.38;;;21.38;56.11
74649;BME280;63168;49.280;7.214;2022-09-12T02:32:30;98837.69;;;21.38;55.99
74649;BME280;63168;49.280;7.214;2022-09-12T02:35:02;98835.03;;;21.38;55.93
74649;BME280;63168;49.280;7.214;2022-09-12T02:37:43;98837.69;;;21.38;55.81
74649;BME280;63168;49.280;7.214;2022-09-12T02:40:12;98842.22;;;21.37;55.79
74649;BME280;63168;49.280;7.214;2022-09-12T02:42:38;98829.84;;;21.36;55.89
74649;BME280;63168;49.280;7.214;2022-09-12T02:45:04;98833.38;;;21.37;55.79
74649;BME280;63168;49.280;7.214;2022-09-12T02:47:33;98833.50;;;21.35;56.15
74649;BME280;63168;49.280;7.214;2022-09-12T02:50:02;98833.50;;;21.35;56.08
74649;BME280;63168;49.280;7.214;2022-09-12T02:52:30;98838.00;;;21.35;55.70
74649;BME280;63168;49.280;7.214;2022-09-12T02:54:56;98828.31;;;21.33;56.09
74649;BME280;63168;49.280;7.214;2022-09-12T02:57:22;98828.31;;;21.33;55.60
74649;BME280;63168;49.280;7.214;2022-09-12T02:59:49;98819.47;;;21.33;55.74
74649;BME280;63168;49.280;7.214;2022-09-12T03:02:25;98822.13;;;21.33;55.88
74649;BME280;63168;49.280;7.214;2022-09-12T03:05:16;98816.78;;;21.33;55.92
74649;BME280;63168;49.280;7.214;2022-09-12T03:08:05;98812.47;;;21.32;55.93
74649;BME280;63168;49.280;7.214;2022-09-12T03:10:41;98819.63;;;21.31;55.87
74649;BME280;63168;49.280;7.214;2022-09-12T03:13:19;98818.78;;;21.31;55.58
74649;BME280;63168;49.280;7.214;2022-09-12T03:15:53;98815.28;;;21.30;55.88
74649;BME280;63168;49.280;7.214;2022-09-12T03:18:30;98809.94;;;21.30;55.59
74649;BME280;63168;49.280;7.214;2022-09-12T03:21:03;98816.25;;;21.29;55.78
74649;BME280;63168;49.280;7.214;2022-09-12T03:23:33;98818.06;;;21.29;55.68
74649;BME280;63168;49.280;7.214;2022-09-12T03:26:04;98818.94;;;21.29;55.66
74649;BME280;63168;49.280;7.214;2022-09-12T03:28:32;98819.94;;;21.28;55.71
74649;BME280;63168;49.280;7.214;2022-09-12T03:30:59;98819.06;;;21.28;55.61
74649;BME280;63168;49.280;7.214;2022-09-12T03:33:25;98814.75;;;21.27;55.54
74649;BME280;63168;49.280;7.214;2022-09-12T03:35:50;98817.41;;;21.27;55.63
74649;BME280;63168;49.280;7.214;2022-09-12T03:38:18;98824.56;;;21.26;55.51
74649;BME280;63168;49.280;7.214;2022-09-12T03:40:43;98816.56;;;21.26;55.59
74649;BME280;63168;49.280;7.214;2022-09-12T03:43:09;98815.69;;;21.26;55.82
74649;BME280;63168;49.280;7.214;2022-09-12T03:45:35;98822.03;;;21.25;55.55
74649;BME280;63168;49.280;7.214;2022-09-12T03:48:02;98811.22;;;21.26;55.65
74649;BME280;63168;49.280;7.214;2022-09-12T03:50:27;98815.88;;;21.24;55.53
74649;BME280;63168;49.280;7.214;2022-09-12T03:52:52;98809.69;;;21.24;55.48
74649;BME280;63168;49.280;7.214;2022-09-12T03:55:19;98818.69;;;21.23;55.61
74649;BME280;63168;49.280;7.214;2022-09-12T03:57:44;98812.50;;;21.22;55.87
74649;BME280;63168;49.280;7.214;2022-09-12T04:00:11;98818.69;;;21.23;55.35
74649;BME280;63168;49.280;7.214;2022-09-12T04:02:36;98809.84;;;21.22;55.54
74649;BME280;63168;49.280;7.214;2022-09-12T04:05:02;98807.16;;;21.22;55.80
74649;BME280;63168;49.280;7.214;2022-09-12T04:07:28;98806.31;;;21.22;55.55
74649;BME280;63168;49.280;7.214;2022-09-12T04:09:54;98806.31;;;21.22;55.49
74649;BME280;63168;49.280;7.214;2022-09-12T04:12:21;98798.16;;;21.23;55.93
74649;BME280;63168;49.280;7.214;2022-09-12T04:14:47;98803.06;;;21.28;55.65
74649;BME280;63168;49.280;7.214;2022-09-12T04:17:14;98801.94;;;21.30;55.91
74649;BME280;63168;49.280;7.214;2022-09-12T04:19:40;98798.44;;;21.30;55.53
74649;BME280;63168;49.280;7.214;2022-09-12T04:22:05;98802.94;;;21.29;55.84
74649;BME280;63168;49.280;7.214;2022-09-12T04:24:31;98798.59;;;21.28;55.80
74649;BME280;63168;49.280;7.214;2022-09-12T04:26:56;98804.88;;;21.27;55.91
74649;BME280;63168;49.280;7.214;2022-09-12T04:29:23;98797.03;;;21.26;55.75
74649;BME280;63168;49.280;7.214;2022-09-12T04:31:49;98793.69;;;21.24;55.52
74649;BME280;63168;49.280;7.214;2022-09-12T04:34:14;98796.34;;;21.24;55.93
74649;BME280;63168;49.280;7.214;2022-09-12T04:36:40;98784.00;;;21.23;55.62
74649;BME280;63168;49.280;7.214;2022-09-12T04:39:06;98796.50;;;21.22;55.49
74649;BME280;63168;49.280;7.214;2022-09-12T04:41:34;98794.81;;;21.21;55.63
74649;BME280;63168;49.280;7.214;2022-09-12T04:44:02;98796.66;;;21.20;55.64
74649;BME280;63168;49.280;7.214;2022-09-12T04:46:31;98793.97;;;21.20;55.74
74649;BME280;63168;49.280;7.214;2022-09-12T04:48:57;98792.31;;;21.19;55.73
74649;BME280;63168;49.280;7.214;2022-09-12T04:51:24;98793.13;;;21.20;55.86
74649;BME280;63168;49.280;7.214;2022-09-12T04:53:53;98782.63;;;21.18;55.61
74649;BME280;63168;49.280;7.214;2022-09-12T04:56:20;98787.97;;;21.18;55.65
74649;BME280;63168;49.280;7.214;2022-09-12T04:58:46;98782.63;;;21.18;55.26
74649;BME280;63168;49.280;7.214;2022-09-12T05:01:14;98783.59;;;21.17;55.76
74649;BME280;63168;49.280;7.214;2022-09-12T05:03:42;98787.25;;;21.16;55.54
74649;BME280;63168;49.280;7.214;2022-09-12T05:06:10;98782.78;;;21.17;55.52
74649;BME280;63168;49.280;7.214;2022-09-12T05:08:36;98781.06;;;21.16;55.80
74649;BME280;63168;49.280;7.214;2022-09-12T05:11:02;98781.94;;;21.16;55.38
74649;BME280;63168;49.280;7.214;2022-09-12T05:13:29;98781.94;;;21.16;55.66
74649;BME280;63168;49.280;7.214;2022-09-12T05:15:55;98779.41;;;21.15;55.47
74649;BME280;63168;49.280;7.214;2022-09-12T05:18:20;98779.41;;;21.15;55.31
74649;BME280;63168;49.280;7.214;2022-09-12T05:20:47;98778.56;;;21.14;55.60
74649;BME280;63168;49.280;7.214;2022-09-12T05:23:12;98787.41;;;21.15;55.32
74649;BME280;63168;49.280;7.214;2022-09-12T05:25:38;98788.41;;;21.14;55.22
74649;BME280;63168;49.280;7.214;2022-09-12T05:28:03;98793.72;;;21.14;55.19
74649;BME280;63168;49.280;7.214;2022-09-12T05:30:28;98797.34;;;21.13;55.17
74649;BME280;63168;49.280;7.214;2022-09-12T05:32:54;98806.22;;;21.13;55.35
74649;BME280;63168;49.280;7.214;2022-09-12T05:35:20;98798.22;;;21.13;55.23
74649;BME280;63168;49.280;7.214;2022-09-12T05:37:47;98798.22;;;21.13;55.67
74649;BME280;63168;49.280;7.214;2022-09-12T05:40:12;98802.88;;;21.11;55.32
74649;BME280;63168;49.280;7.214;2022-09-12T05:42:41;98792.19;;;21.11;55.13
74649;BME280;63168;49.280;7.214;2022-09-12T05:45:07;98786.00;;;21.11;55.43
74649;BME280;63168;49.280;7.214;2022-09-12T05:47:33;98786.88;;;21.11;55.08
74649;BME280;63168;49.280;7.214;2022-09-12T05:49:58;98786.00;;;21.11;55.13
74649;BME280;63168;49.280;7.214;2022-09-12T05:52:23;98787.84;;;21.10;55.36
74649;BME280;63168;49.280;7.214;2022-09-12T05:54:50;98789.69;;;21.10;55.09
74649;BME280;63168;49.280;7.214;2022-09-12T05:57:16;98798.50;;;21.10;55.50
74649;BME280;63168;49.280;7.214;2022-09-12T05:59:41;98794.00;;;21.11;55.36
74649;BME280;63168;49.280;7.214;2022-09-12T06:02:08;98789.53;;;21.11;55.02
74649;BME280;63168;49.280;7.214;2022-09-12T06:04:34;98800.19;;;21.11;55.54
74649;BME280;63168;49.280;7.214;2022-09-12T06:06:59;98790.34;;;21.12;55.22
74649;BME280;63168;49.280;7.214;2022-09-12T06:09:25;98787.53;;;21.13;55.41
74649;BME280;63168;49.280;7.214;2022-09-12T06:11:53;98795.53;;;21.13;54.94
74649;BME280;63168;49.280;7.214;2022-09-12T06:14:20;98794.53;;;21.14;55.27
74649;BME280;63168;49.280;7.214;2022-09-12T06:16:46;98794.53;;;21.14;55.05
74649;BME280;63168;49.280;7.214;2022-09-12T06:19:14;98806.91;;;21.15;54.85
74649;BME280;63168;49.280;7.214;2022-09-12T06:21:40;98807.75;;;21.16;54.81
74649;BME280;63168;49.280;7.214;2022-09-12T06:24:05;98806.91;;;21.15;54.76
74649;BME280;63168;49.280;7.214;2022-09-12T06:26:34;98797.94;;;21.16;54.78
74649;BME280;63168;49.280;7.214;2022-09-12T06:29:01;98803.25;;;21.16;54.81
74649;BME280;63168;49.280;7.214;2022-09-12T06:31:29;98802.41;;;21.16;54.77
74649;BME280;63168;49.280;7.214;2022-09-12T06:33:55;98804.94;;;21.17;54.79
74649;BME280;63168;49.280;7.214;2022-09-12T06:36:23;98808.59;;;21.16;55.16
74649;BME280;63168;49.280;7.214;2022-09-12T06:38:53;98809.44;;;21.17;55.10
74649;BME280;63168;49.280;7.214;2022-09-12T06:41:19;98809.44;;;21.17;54.87
74649;BME280;63168;49.280;7.214;2022-09-12T06:43:44;98817.28;;;21.18;55.07
74649;BME280;63168;49.280;7.214;2022-09-12T06:46:11;98809.44;;;21.17;54.92
74649;BME280;63168;49.280;7.214;2022-09-12T06:48:37;98813.78;;;21.18;54.61
74649;BME280;63168;49.280;7.214;2022-09-12T06:51:05;98812.78;;;21.19;54.79
74649;BME280;63168;49.280;7.214;2022-09-12T06:53:32;98807.44;;;21.19;55.07
74649;BME280;63168;49.280;7.214;2022-09-12T06:55:59;98808.97;;;21.22;54.58
74649;BME280;63168;49.280;7.214;2022-09-12T06:58:26;98805.34;;;21.23;54.98
74649;BME280;63168;49.280;7.214;2022-09-12T07:00:51;98803.50;;;21.23;54.85
74649;BME280;63168;49.280;7.214;2022-09-12T07:03:18;98804.34;;;21.24;54.79
74649;BME280;63168;49.280;7.214;2022-09-12T07:05:44;98801.53;;;21.25;54.61
74649;BME280;63168;49.280;7.214;2022-09-12T07:08:09;98807.69;;;21.26;54.45
74649;BME280;63168;49.280;7.214;2022-09-12T07:10:35;98807.56;;;21.27;54.63
74649;BME280;63168;49.280;7.214;2022-09-12T07:13:00;98804.06;;;21.27;54.62
74649;BME280;63168;49.280;7.214;2022-09-12T07:15:25;98810.06;;;21.29;54.44
74649;BME280;63168;49.280;7.214;2022-09-12T07:17:51;98808.25;;;21.29;54.56
74649;BME280;63168;49.280;7.214;2022-09-12T07:20:18;98805.75;;;21.28;54.95
74649;BME280;63168;49.280;7.214;2022-09-12T07:22:43;98815.28;;;21.30;54.91
74649;BME280;63168;49.280;7.214;2022-09-12T07:25:09;98814.31;;;21.31;54.64
74649;BME280;63168;49.280;7.214;2022-09-12T07:27:34;98813.16;;;21.34;54.46
74649;BME280;63168;49.280;7.214;2022-09-12T07:30:02;98816.66;;;21.35;54.73
74649;BME280;63168;49.280;7.214;2022-09-12T07:32:27;98814.69;;;21.37;54.52
74649;BME280;63168;49.280;7.214;2022-09-12T07:34:53;98813.69;;;21.38;54.76
74649;BME280;63168;49.280;7.214;2022-09-12T07:37:20;98808.22;;;21.39;54.43
74649;BME280;63168;49.280;7.214;2022-09-12T07:39:45;98808.06;;;21.41;54.28
74649;BME280;63168;49.280;7.214;2022-09-12T07:42:11;98807.94;;;21.42;54.98
74649;BME280;63168;49.280;7.214;2022-09-12T07:44:37;98811.28;;;21.44;54.90
74649;BME280;63168;49.280;7.214;2022-09-12T07:47:03;98813.50;;;21.49;55.15
74649;BME280;63168;49.280;7.214;2022-09-12T07:49:28;98814.75;;;21.55;54.81
74649;BME280;63168;49.280;7.214;2022-09-12T07:51:55;98810.50;;;21.62;55.02
74649;BME280;63168;49.280;7.214;2022-09-12T07:54:22;98812.88;;;21.65;54.40
74649;BME280;63168;49.280;7.214;2022-09-12T07:56:48;98813.88;;;21.64;53.56
74649;BME280;63168;49.280;7.214;2022-09-12T07:59:13;98809.69;;;21.62;53.57
74649;BME280;63168;49.280;7.214;2022-09-12T08:01:38;98800.97;;;21.59;53.54
74649;BME280;63168;49.280;7.214;2022-09-12T08:04:05;98802.78;;;21.59;54.03
74649;BME280;63168;49.280;7.214;2022-09-12T08:06:32;98804.34;;;21.62;53.97
74649;BME280;63168;49.280;7.214;2022-09-12T08:09:00;98808.81;;;21.61;54.06
74649;BME280;63168;49.280;7.214;2022-09-12T08:11:28;98806.16;;;21.61;54.12
74649;BME280;63168;49.280;7.214;2022-09-12T08:13:55;98810.63;;;21.61;53.67
74649;BME280;63168;49.280;7.214;2022-09-12T08:16:26;98808.97;;;21.59;53.86
74649;BME280;63168;49.280;7.214;2022-09-12T08:18:52;98812.78;;;21.57;53.83
74649;BME280;63168;49.280;7.214;2022-09-12T08:21:19;98804.94;;;21.55;53.74
74649;BME280;63168;49.280;7.214;2022-09-12T08:23:46;98800.59;;;21.54;53.79
74649;BME280;63168;49.280;7.214;2022-09-12T08:26:12;98798.88;;;21.53;54.11
74649;BME280;63168;49.280;7.214;2022-09-12T08:28:39;98800.72;;;21.53;53.92
74649;BME280;63168;49.280;7.214;2022-09-12T08:31:11;98801.69;;;21.52;53.87
74649;BME280;63168;49.280;7.214;2022-09-12T08:33:37;98805.34;;;21.51;53.95
74649;BME280;63168;49.280;7.214;2022-09-12T08:36:04;98802.84;;;21.49;53.95
74649;BME280;63168;49.280;7.214;2022-09-12T08:38:30;98810.69;;;21.51;54.31
74649;BME280;63168;49.280;7.214;2022-09-12T08:41:00;98805.34;;;21.51;53.84
74649;BME280;63168;49.280;7.214;2022-09-12T08:43:35;98809.03;;;21.50;54.02
74649;BME280;63168;49.280;7.214;2022-09-12T08:46:14;98804.53;;;21.50;54.27
74649;BME280;63168;49.280;7.214;2022-09-12T08:48:43;98807.22;;;21.50;54.04
74649;BME280;63168;49.280;7.214;2022-09-12T08:51:10;98804.53;;;21.50;54.53
74649;BME280;63168;49.280;7.214;2022-09-12T08:53:37;98807.34;;;21.49;54.11
74649;BME280;63168;49.280;7.214;2022-09-12T08:56:04;98811.69;;;21.50;54.10
74649;BME280;63168;49.280;7.214;2022-09-12T08:58:35;98809.03;;;21.50;54.46
74649;BME280;63168;49.280;7.214;2022-09-12T09:01:07;98808.03;;;21.51;54.18
74649;BME280;63168;49.280;7.214;2022-09-12T09:06:47;98805.34;;;21.51;54.38
74649;BME280;63168;49.280;7.214;2022-09-12T09:09:22;98803.53;;;21.51;54.38
74649;BME280;63168;49.280;7.214;2022-09-12T09:11:59;98800.88;;;21.51;54.26
74649;BME280;63168;49.280;7.214;2022-09-12T09:14:48;98805.34;;;21.51;54.23
74649;BME280;63168;49.280;7.214;2022-09-12T09:17:22;98797.34;;;21.51;54.29
74649;BME280;63168;49.280;7.214;2022-09-12T09:19:55;98795.53;;;21.51;54.49
74649;BME280;63168;49.280;7.214;2022-09-12T09:22:30;98793.88;;;21.50;54.22
74649;BME280;63168;49.280;7.214;2022-09-12T09:25:02;98797.34;;;21.51;54.36
74649;BME280;63168;49.280;7.214;2022-09-12T09:27:30;98788.53;;;21.50;54.70
74649;BME280;63168;49.280;7.214;2022-09-12T09:29:57;98789.34;;;21.51;54.36
74649;BME280;63168;49.280;7.214;2022-09-12T09:32:25;98778.69;;;21.51;54.71
74649;BME280;63168;49.280;7.214;2022-09-12T09:34:53;98786.69;;;21.51;54.35
74649;BME280;63168;49.280;7.214;2022-09-12T09:37:20;98787.69;;;21.50;54.42
74649;BME280;63168;49.280;7.214;2022-09-12T09:39:51;98780.53;;;21.50;54.48
74649;BME280;63168;49.280;7.214;2022-09-12T09:42:26;98779.53;;;21.51;54.34
74649;BME280;63168;49.280;7.214;2022-09-12T09:44:58;98778.53;;;21.52;54.43
74649;BME280;63168;49.280;7.214;2022-09-12T09:47:24;98776.00;;;21.51;54.59
74649;BME280;63168;49.280;7.214;2022-09-12T09:49:50;98773.34;;;21.51;54.55
74649;BME280;63168;49.280;7.214;2022-09-12T09:52:21;98779.53;;;21.51;54.59
74649;BME280;63168;49.280;7.214;2022-09-12T09:54:50;98778.69;;;21.51;54.35
74649;BME280;63168;49.280;7.214;2022-09-12T09:57:40;98775.03;;;21.52;54.38
74649;BME280;63168;49.280;7.214;2022-09-12T10:00:23;98774.19;;;21.51;54.59
74649;BME280;63168;49.280;7.214;2022-09-12T10:03:01;98770.53;;;21.52;54.72
74649;BME280;63168;49.280;7.214;2022-09-12T10:05:28;98772.34;;;21.52;54.62
74649;BME280;63168;49.280;7.214;2022-09-12T10:07:54;98763.53;;;21.51;54.42
74649;BME280;63168;49.280;7.214;2022-09-12T10:10:20;98771.38;;;21.53;54.51
74649;BME280;63168;49.280;7.214;2022-09-12T10:12:47;98767.88;;;21.52;54.69
74649;BME280;63168;49.280;7.214;2022-09-12T10:15:18;98764.34;;;21.52;54.77
74649;BME280;63168;49.280;7.214;2022-09-12T10:17:45;98763.53;;;21.51;54.45
74649;BME280;63168;49.280;7.214;2022-09-12T10:20:30;98765.19;;;21.52;54.69
74649;BME280;63168;49.280;7.214;2022-09-12T10:22:58;98760.72;;;21.53;54.62
74649;BME280;63168;49.280;7.214;2022-09-12T10:25:24;98757.19;;;21.52;54.44
74649;BME280;63168;49.280;7.214;2022-09-12T10:27:52;98754.53;;;21.52;54.54
74649;BME280;63168;49.280;7.214;2022-09-12T10:30:20;98747.38;;;21.53;54.92
74649;BME280;63168;49.280;7.214;2022-09-12T10:32:49;98744.69;;;21.53;54.39
74649;BME280;63168;49.280;7.214;2022-09-12T10:35:17;98739.38;;;21.53;54.72
74649;BME280;63168;49.280;7.214;2022-09-12T10:37:51;98732.19;;;21.53;54.71
74649;BME280;63168;49.280;7.214;2022-09-12T10:40:24;98726.03;;;21.53;54.41
74649;BME280;63168;49.280;7.214;2022-09-12T10:42:51;98724.19;;;21.53;54.74
74649;BME280;63168;49.280;7.214;2022-09-12T10:45:23;98722.50;;;21.52;54.92
74649;BME280;63168;49.280;7.214;2022-09-12T10:47:49;98727.69;;;21.54;54.47
74649;BME280;63168;49.280;7.214;2022-09-12T10:50:23;98726.03;;;21.53;54.61
74649;BME280;63168;49.280;7.214;2022-09-12T10:52:50;98720.53;;;21.54;54.87
74649;BME280;63168;49.280;7.214;2022-09-12T10:55:16;98718.84;;;21.53;54.88
74649;BME280;63168;49.280;7.214;2022-09-12T10:57:54;98712.53;;;21.54;54.59
74649;BME280;63168;49.280;7.214;2022-09-12T11:00:23;98722.22;;;21.55;54.52
74649;BME280;63168;49.280;7.214;2022-09-12T11:03:08;98716.03;;;21.55;54.60
74649;BME280;63168;49.280;7.214;2022-09-12T11:05:54;98714.22;;;21.55;54.54
74649;BME280;63168;49.280;7.214;2022-09-12T11:08:30;98716.03;;;21.55;54.89
74649;BME280;63168;49.280;7.214;2022-09-12T11:11:03;98711.53;;;21.55;54.76
74649;BME280;63168;49.280;7.214;2022-09-12T11:13:51;98708.88;;;21.55;54.59
74649;BME280;63168;49.280;7.214;2022-09-12T11:16:29;98702.69;;;21.55;54.69
74649;BME280;63168;49.280;7.214;2022-09-12T11:19:08;98707.06;;;21.56;54.54
74649;BME280;63168;49.280;7.214;2022-09-12T11:21:46;98707.88;;;21.56;54.81
74649;BME280;63168;49.280;7.214;2022-09-12T11:24:32;98704.41;;;21.56;54.81
74649;BME280;63168;49.280;7.214;2022-09-12T11:27:20;98709.72;;;21.56;54.65
74649;BME280;63168;49.280;7.214;2022-09-12T11:29:54;98714.06;;;21.57;54.73
74649;BME280;63168;49.280;7.214;2022-09-12T11:32:36;98706.06;;;21.57;54.81
74649;BME280;63168;49.280;7.214;2022-09-12T11:35:16;98706.06;;;21.57;55.04
74649;BME280;63168;49.280;7.214;2022-09-12T11:37:50;98709.56;;;21.57;54.93
74649;BME280;63168;49.280;7.214;2022-09-12T11:40:26;98699.06;;;21.56;54.58
74649;BME280;63168;49.280;7.214;2022-09-12T11:42:58;98699.06;;;21.56;54.62
74649;BME280;63168;49.280;7.214;2022-09-12T11:45:28;98703.41;;;21.57;55.00
74649;BME280;63168;49.280;7.214;2022-09-12T11:48:00;98697.06;;;21.58;54.67
74649;BME280;63168;49.280;7.214;2022-09-12T11:50:30;98703.41;;;21.57;54.59
74649;BME280;63168;49.280;7.214;2022-09-12T11:53:02;98705.06;;;21.58;55.09
74649;BME280;63168;49.280;7.214;2022-09-12T11:55:33;98702.41;;;21.58;54.88
74649;BME280;63168;49.280;7.214;2022-09-12T11:58:03;98699.56;;;21.59;54.57
74649;BME280;63168;49.280;7.214;2022-09-12T12:00:33;98691.72;;;21.58;55.13
74649;BME280;63168;49.280;7.214;2022-09-12T12:03:05;98690.72;;;21.59;54.99
74649;BME280;63168;49.280;7.214;2022-09-12T12:05:38;98686.38;;;21.58;54.96
74649;BME280;63168;49.280;7.214;2022-09-12T12:08:05;98681.06;;;21.58;54.64
74649;BME280;63168;49.280;7.214;2022-09-12T12:10:35;98673.03;;;21.58;55.06
74649;BME280;63168;49.280;7.214;2022-09-12T12:13:02;98670.38;;;21.58;54.71
74649;BME280;63168;49.280;7.214;2022-09-12T12:15:30;98667.72;;;21.58;54.94
74649;BME280;63168;49.280;7.214;2022-09-12T12:18:01;98668.56;;;21.58;54.97
74649;BME280;63168;49.280;7.214;2022-09-12T12:20:27;98664.91;;;21.59;54.87
74649;BME280;63168;49.280;7.214;2022-09-12T12:22:53;98657.75;;;21.60;55.08
74649;BME280;63168;49.280;7.214;2022-09-12T12:25:25;98665.75;;;21.60;55.12
74649;BME280;63168;49.280;7.214;2022-09-12T12:28:02;98664.19;;;21.57;55.09
74649;BME280;63168;49.280;7.214;2022-09-12T12:30:59;98664.91;;;21.59;55.04
74649;BME280;63168;49.280;7.214;2022-09-12T12:33:53;98672.06;;;21.59;54.95
74649;BME280;63168;49.280;7.214;2022-09-12T12:36:34;98665.75;;;21.60;55.00
74649;BME280;63168;49.280;7.214;2022-09-12T12:42:07;98664.75;;;21.61;54.82
74649;BME280;63168;49.280;7.214;2022-09-12T12:44:48;98647.88;;;21.61;54.87
74649;BME280;63168;49.280;7.214;2022-09-12T12:47:17;98649.75;;;21.60;55.15
74649;BME280;63168;49.280;7.214;2022-09-12T12:49:50;98650.56;;;21.61;55.26
74649;BME280;63168;49.280;7.214;2022-09-12T12:52:17;98646.06;;;21.61;54.91
74649;BME280;63168;49.280;7.214;2022-09-12T12:54:49;98636.25;;;21.62;55.03
74649;BME280;63168;49.280;7.214;2022-09-12T12:57:21;98641.59;;;21.62;55.28
74649;BME280;63168;49.280;7.214;2022-09-12T12:59:50;98638.06;;;21.61;54.99
74649;BME280;63168;49.280;7.214;2022-09-12T13:02:26;98638.91;;;21.62;55.06
74649;BME280;63168;49.280;7.214;2022-09-12T13:04:53;98634.41;;;21.62;55.18
74649;BME280;63168;49.280;7.214;2022-09-12T13:07:25;98637.06;;;21.62;55.05
74649;BME280;63168;49.280;7.214;2022-09-12T13:09:52;98630.06;;;21.61;54.77
74649;BME280;63168;49.280;7.214;2022-09-12T13:12:21;98635.25;;;21.63;55.08
74649;BME280;63168;49.280;7.214;2022-09-12T13:14:55;98637.91;;;21.63;55.06
74649;BME280;63168;49.280;7.214;2022-09-12T13:17:28;98629.91;;;21.63;54.98